createdAt,value
2022-07-29T00:00:22.490Z,50
2022-07-29T00:01:30.864Z,48
2022-07-29T00:02:23.266Z,49
2022-07-29T00:03:23.040Z,50
2022-07-29T00:04:25.679Z,50
2022-07-29T00:05:30.892Z,50
2022-07-29T00:06:24.951Z,50
2022-07-29T00:07:22.211Z,50
2022-07-29T00:08:32.222Z,49
2022-07-29T00:09:30.482Z,50
2022-07-29T00:10:28.400Z,51
2022-07-29T00:11:22.833Z,51
2022-07-29T00:12:28.741Z,50
2022-07-29T00:13:32.630Z,49
2022-07-29T00:14:20.472Z,49
2022-07-29T00:15:30.599Z,51
2022-07-29T00:16:33.146Z,51
2022-07-29T00:17:22.650Z,51
2022-07-29T00:18:23.185Z,51
2022-07-29T00:19:20.916Z,51
2022-07-29T00:20:25.100Z,52
2022-07-29T00:21:23.064Z,52
2022-07-29T00:22:32.285Z,51
2022-07-29T00:23:26.782Z,51
2022-07-29T00:24:28.526Z,51
2022-07-29T00:25:29.625Z,52
2022-07-29T00:26:24.734Z,52
2022-07-29T00:27:30.470Z,52
2022-07-29T00:28:21.617Z,53
2022-07-29T00:29:33.985Z,52
2022-07-29T00:30:27.961Z,52
2022-07-29T00:31:25.398Z,51
2022-07-29T00:32:20.932Z,52
2022-07-29T00:33:23.337Z,53
2022-07-29T00:34:21.480Z,52
2022-07-29T00:35:22.393Z,52
2022-07-29T00:36:32.628Z,51
2022-07-29T00:37:26.584Z,51
2022-07-29T00:38:26.754Z,51
2022-07-29T00:39:34.123Z,51
2022-07-29T00:40:29.604Z,51
2022-07-29T00:41:19.930Z,52
2022-07-29T00:42:24.231Z,52
2022-07-29T00:43:30.679Z,53
2022-07-29T00:44:27.832Z,52
2022-07-29T00:45:25.274Z,53
2022-07-29T00:46:32.438Z,52
2022-07-29T00:47:31.365Z,52
2022-07-29T00:48:27.371Z,52
2022-07-29T00:49:22.947Z,51
2022-07-29T00:50:32.598Z,52
2022-07-29T00:51:27.345Z,50
2022-07-29T00:52:24.622Z,50
2022-07-29T00:53:34.629Z,50
2022-07-29T00:54:30.639Z,50
2022-07-29T00:55:29.309Z,50
2022-07-29T00:56:22.688Z,50
2022-07-29T00:57:20.942Z,50
2022-07-29T00:58:27.999Z,50
2022-07-29T00:59:22.975Z,52
2022-07-29T01:00:44.043Z,50
2022-07-29T01:19:29.676Z,51
2022-07-29T01:20:31.389Z,51
2022-07-29T01:21:31.357Z,52
2022-07-29T01:35:21.954Z,50
2022-07-29T01:36:35.074Z,50
2022-07-29T01:37:40.733Z,51
2022-07-29T01:38:38.633Z,50
2022-07-29T01:39:36.438Z,50
2022-07-29T01:40:27.958Z,49
2022-07-29T01:41:23.949Z,50
2022-07-29T01:42:26.109Z,50
2022-07-29T01:43:25.589Z,50
2022-07-29T01:44:24.824Z,50
2022-07-29T01:45:22.117Z,50
2022-07-29T01:46:35.525Z,49
2022-07-29T01:47:24.093Z,49
2022-07-29T01:48:24.193Z,50
2022-07-29T01:49:21.278Z,49
2022-07-29T01:50:22.196Z,49
2022-07-29T01:51:38.391Z,49
2022-07-29T01:52:21.784Z,49
2022-07-29T01:53:43.973Z,49
2022-07-29T01:54:24.827Z,49
2022-07-29T01:55:22.851Z,48
2022-07-29T01:56:25.154Z,48
2022-07-29T01:57:25.920Z,49
2022-07-29T01:58:24.757Z,49
2022-07-29T01:59:20.815Z,49
2022-07-29T02:00:32.337Z,49
2022-07-29T02:01:26.712Z,49
2022-07-29T02:02:23.528Z,49
2022-07-29T02:03:30.444Z,49
2022-07-29T02:04:29.446Z,49
2022-07-29T02:05:24.886Z,48
2022-07-29T02:06:21.935Z,49
2022-07-29T02:07:30.581Z,49
2022-07-29T02:08:30.858Z,49
2022-07-29T02:09:22.780Z,48
2022-07-29T02:10:33.435Z,48
2022-07-29T02:11:33.032Z,48
2022-07-29T02:12:26.261Z,49
2022-07-29T02:13:20.782Z,48
2022-07-29T02:14:31.580Z,49
2022-07-29T02:15:28.381Z,49
2022-07-29T02:16:22.467Z,49
2022-07-29T02:17:32.446Z,49
2022-07-29T02:18:31.513Z,50
2022-07-29T02:19:24.506Z,50
2022-07-29T02:20:27.095Z,50
2022-07-29T02:21:34.039Z,49
2022-07-29T02:22:27.885Z,49
2022-07-29T02:23:22.609Z,50
2022-07-29T02:24:32.878Z,49
2022-07-29T02:25:37.189Z,50
2022-07-29T02:26:31.767Z,52
2022-07-29T02:27:24.728Z,53
2022-07-29T02:28:24.147Z,53
2022-07-29T02:29:28.783Z,53
2022-07-29T02:30:23.601Z,53
2022-07-29T02:31:34.233Z,53
2022-07-29T02:32:29.450Z,53
2022-07-29T02:33:25.071Z,53
2022-07-29T02:34:25.647Z,52
2022-07-29T02:35:24.605Z,53
2022-07-29T02:36:27.153Z,52
2022-07-29T02:37:22.522Z,52
2022-07-29T02:38:33.201Z,51
2022-07-29T02:39:30.619Z,51
2022-07-29T02:40:27.057Z,51
2022-07-29T02:41:25.416Z,51
2022-07-29T02:42:23.195Z,51
2022-07-29T02:43:21.753Z,51
2022-07-29T02:44:23.233Z,50
2022-07-29T02:45:34.545Z,50
2022-07-29T02:46:29.784Z,50
2022-07-29T02:47:28.422Z,50
2022-07-29T02:48:20.513Z,50
2022-07-29T02:49:24.959Z,50
2022-07-29T02:50:26.832Z,50
2022-07-29T02:51:41.368Z,49
2022-07-29T02:52:21.759Z,49
2022-07-29T02:53:30.018Z,49
2022-07-29T02:54:25.022Z,49
2022-07-29T02:55:22.977Z,49
2022-07-29T02:56:32.650Z,49
2022-07-29T02:57:25.408Z,49
2022-07-29T02:58:22.303Z,49
2022-07-29T02:59:26.758Z,49
2022-07-29T03:00:31.097Z,49
2022-07-29T03:01:26.961Z,49
2022-07-29T03:02:21.447Z,49
2022-07-29T03:03:20.739Z,49
2022-07-29T03:04:27.977Z,49
2022-07-29T03:05:25.004Z,49
2022-07-29T03:06:28.810Z,50
2022-07-29T03:07:29.957Z,50
2022-07-29T03:08:25.579Z,50
2022-07-29T03:09:22.862Z,50
2022-07-29T03:10:22.648Z,49
2022-07-29T03:11:40.156Z,49
2022-07-29T03:12:23.270Z,50
2022-07-29T03:13:25.004Z,50
2022-07-29T03:14:28.724Z,51
2022-07-29T03:15:24.783Z,52
2022-07-29T03:16:21.309Z,52
2022-07-29T03:17:27.009Z,53
2022-07-29T03:18:28.453Z,52
2022-07-29T03:19:22.677Z,53
2022-07-29T03:20:22.113Z,53
2022-07-29T03:21:22.968Z,51
2022-07-29T03:22:26.541Z,51
2022-07-29T03:23:22.617Z,51
2022-07-29T03:24:30.547Z,50
2022-07-29T03:25:28.272Z,50
2022-07-29T03:26:22.658Z,50
2022-07-29T03:27:24.095Z,50
2022-07-29T03:28:31.967Z,50
2022-07-29T03:29:24.688Z,50
2022-07-29T03:30:22.521Z,50
2022-07-29T03:31:41.420Z,50
2022-07-29T03:32:29.241Z,50
2022-07-29T03:33:24.128Z,49
2022-07-29T03:34:31.228Z,50
2022-07-29T03:35:21.685Z,49
2022-07-29T03:36:24.531Z,49
2022-07-29T03:37:23.324Z,49
2022-07-29T03:38:31.077Z,50
2022-07-29T03:39:23.389Z,50
2022-07-29T03:40:22.599Z,50
2022-07-29T03:41:32.936Z,50
2022-07-29T03:42:32.385Z,50
2022-07-29T03:43:21.757Z,51
2022-07-29T03:44:20.576Z,50
2022-07-29T03:45:31.673Z,50
2022-07-29T03:46:28.154Z,50
2022-07-29T03:47:27.035Z,50
2022-07-29T03:48:34.423Z,49
2022-07-29T03:49:26.466Z,51
2022-07-29T03:50:27.066Z,51
2022-07-29T03:51:33.315Z,50
2022-07-29T03:52:32.589Z,50
2022-07-29T03:53:27.404Z,49
2022-07-29T03:54:25.655Z,50
2022-07-29T03:55:32.744Z,50
2022-07-29T03:56:30.833Z,50
2022-07-29T03:57:25.942Z,50
2022-07-29T03:58:21.725Z,50
2022-07-29T03:59:21.939Z,50
2022-07-29T04:00:25.114Z,50
2022-07-29T04:01:23.369Z,51
2022-07-29T04:02:32.860Z,51
2022-07-29T04:03:34.157Z,52
2022-07-29T04:04:27.771Z,52
2022-07-29T04:05:23.104Z,52
2022-07-29T04:06:30.626Z,52
2022-07-29T04:07:26.899Z,52
2022-07-29T04:08:22.968Z,52
2022-07-29T04:09:33.871Z,52
2022-07-29T04:10:31.651Z,51
2022-07-29T04:11:24.951Z,51
2022-07-29T04:12:20.953Z,51
2022-07-29T04:13:20.763Z,52
2022-07-29T04:14:24.190Z,52
2022-07-29T04:15:24.330Z,54
2022-07-29T04:16:33.031Z,54
2022-07-29T04:17:26.417Z,54
2022-07-29T04:18:24.846Z,53
2022-07-29T04:19:21.008Z,51
2022-07-29T04:20:23.886Z,51
2022-07-29T04:21:45.239Z,51
2022-07-29T04:22:22.800Z,52
2022-07-29T04:23:31.772Z,51
2022-07-29T04:24:29.896Z,51
2022-07-29T04:25:25.949Z,52
2022-07-29T04:26:21.291Z,52
2022-07-29T04:27:30.627Z,53
2022-07-29T04:28:23.916Z,52
2022-07-29T04:29:25.765Z,51
2022-07-29T04:30:33.214Z,52
2022-07-29T04:31:30.487Z,52
2022-07-29T04:32:25.577Z,51
2022-07-29T04:33:20.857Z,52
2022-07-29T04:34:28.407Z,52
2022-07-29T04:35:26.597Z,52
2022-07-29T04:36:28.831Z,51
2022-07-29T04:37:21.460Z,51
2022-07-29T04:38:29.304Z,51
2022-07-29T04:39:26.324Z,51
2022-07-29T04:40:22.686Z,51
2022-07-29T04:41:33.175Z,52
2022-07-29T04:42:29.793Z,51
2022-07-29T04:43:26.715Z,52
2022-07-29T04:44:28.921Z,52
2022-07-29T04:45:26.013Z,52
2022-07-29T04:46:24.758Z,52
2022-07-29T04:47:20.785Z,52
2022-07-29T04:48:33.899Z,52
2022-07-29T04:49:28.775Z,52
2022-07-29T04:50:22.555Z,52
2022-07-29T04:51:31.127Z,52
2022-07-29T04:52:22.138Z,52
2022-07-29T04:53:25.792Z,52
2022-07-29T04:54:22.263Z,52
2022-07-29T04:55:21.775Z,52
2022-07-29T04:56:20.207Z,52
2022-07-29T04:57:29.533Z,53
2022-07-29T04:58:24.777Z,52
2022-07-29T04:59:31.552Z,52
2022-07-29T05:00:19.259Z,52
2022-07-29T05:01:20.695Z,51
2022-07-29T05:02:27.382Z,52
2022-07-29T05:03:26.911Z,52
2022-07-29T05:04:24.085Z,52
2022-07-29T05:05:28.085Z,52
2022-07-29T05:06:20.251Z,51
2022-07-29T05:07:24.942Z,51
2022-07-29T05:08:21.160Z,51
2022-07-29T05:09:28.583Z,51
2022-07-29T05:10:37.678Z,51
2022-07-29T05:11:24.923Z,51
2022-07-29T05:12:34.309Z,51
2022-07-29T05:13:24.061Z,51
2022-07-29T05:14:28.820Z,51
2022-07-29T05:15:34.671Z,51
2022-07-29T05:16:31.709Z,52
2022-07-29T05:17:28.842Z,51
2022-07-29T05:18:26.111Z,51
2022-07-29T05:19:30.163Z,51
2022-07-29T05:20:24.514Z,50
2022-07-29T05:21:22.580Z,50
2022-07-29T05:22:21.712Z,50
2022-07-29T05:23:33.473Z,50
2022-07-29T05:24:20.720Z,50
2022-07-29T05:25:22.862Z,50
2022-07-29T05:26:35.128Z,50
2022-07-29T05:27:28.902Z,50
2022-07-29T05:28:26.803Z,50
2022-07-29T05:29:43.640Z,49
2022-07-29T05:30:29.208Z,50
2022-07-29T05:31:22.584Z,49
2022-07-29T05:32:22.805Z,50
2022-07-29T05:33:37.075Z,50
2022-07-29T05:34:30.425Z,50
2022-07-29T05:35:26.331Z,49
2022-07-29T05:36:22.537Z,49
2022-07-29T05:37:26.981Z,49
2022-07-29T05:38:26.716Z,49
2022-07-29T05:39:46.587Z,49
2022-07-29T05:40:33.972Z,49
2022-07-29T05:41:21.132Z,49
2022-07-29T05:42:21.862Z,49
2022-07-29T05:43:23.997Z,49
2022-07-29T05:44:31.763Z,49
2022-07-29T05:45:23.572Z,49
2022-07-29T05:46:22.864Z,48
2022-07-29T05:47:31.016Z,48
2022-07-29T05:48:28.562Z,48
2022-07-29T05:49:27.288Z,48
2022-07-29T05:50:21.974Z,48
2022-07-29T05:51:23.119Z,48
2022-07-29T05:52:27.714Z,48
2022-07-29T05:53:23.382Z,48
2022-07-29T05:54:32.991Z,48
2022-07-29T05:55:32.611Z,48
2022-07-29T05:56:27.167Z,48
2022-07-29T05:57:20.888Z,48
2022-07-29T05:58:25.090Z,48
2022-07-29T05:59:19.851Z,48
2022-07-29T06:00:24.801Z,48
2022-07-29T06:01:34.049Z,48
2022-07-29T06:02:29.633Z,48
2022-07-29T06:03:26.034Z,48
2022-07-29T06:04:21.647Z,47
2022-07-29T06:05:46.374Z,47
2022-07-29T06:06:27.668Z,47
2022-07-29T06:07:26.005Z,47
2022-07-29T06:08:21.952Z,47
2022-07-29T06:09:21.604Z,47
2022-07-29T06:10:24.628Z,47
2022-07-29T06:11:21.363Z,47
2022-07-29T06:12:32.292Z,47
2022-07-29T06:13:30.920Z,47
2022-07-29T06:14:25.223Z,47
2022-07-29T06:15:28.964Z,47
2022-07-29T06:16:30.701Z,47
2022-07-29T06:17:25.089Z,46
2022-07-29T06:18:24.636Z,46
2022-07-29T06:19:32.675Z,46
2022-07-29T06:20:29.347Z,46
2022-07-29T06:21:26.599Z,46
2022-07-29T06:22:32.762Z,46
2022-07-29T06:23:23.013Z,46
2022-07-29T06:24:26.070Z,46
2022-07-29T06:25:20.542Z,46
2022-07-29T06:26:30.640Z,46
2022-07-29T06:27:28.263Z,46
2022-07-29T06:28:23.060Z,46
2022-07-29T06:29:24.067Z,45
2022-07-29T06:30:29.508Z,46
2022-07-29T06:31:20.355Z,46
2022-07-29T06:32:22.973Z,46
2022-07-29T06:33:31.404Z,46
2022-07-29T06:34:37.200Z,46
2022-07-29T06:35:38.385Z,45
2022-07-29T06:36:25.881Z,45
2022-07-29T06:37:33.915Z,45
2022-07-29T06:38:31.231Z,45
2022-07-29T06:39:20.932Z,45
2022-07-29T06:40:30.695Z,45
2022-07-29T06:41:28.404Z,45
2022-07-29T06:42:23.006Z,45
2022-07-29T06:43:27.669Z,45
2022-07-29T06:44:23.158Z,45
2022-07-29T06:45:24.794Z,44
2022-07-29T06:46:23.918Z,44
2022-07-29T06:47:27.810Z,44
2022-07-29T06:48:28.401Z,44
2022-07-29T06:49:22.909Z,44
2022-07-29T06:50:34.256Z,44
2022-07-29T06:51:28.722Z,44
2022-07-29T06:52:20.252Z,44
2022-07-29T06:53:20.868Z,44
2022-07-29T06:54:21.125Z,44
2022-07-29T06:55:28.162Z,44
2022-07-29T06:56:25.227Z,44
2022-07-29T06:57:32.946Z,44
2022-07-29T06:58:20.846Z,44
2022-07-29T06:59:33.405Z,43
2022-07-29T07:00:20.816Z,43
2022-07-29T07:01:23.664Z,43
2022-07-29T07:02:26.675Z,43
2022-07-29T07:03:25.923Z,43
2022-07-29T07:04:36.882Z,43
2022-07-29T07:05:22.268Z,43
2022-07-29T07:06:28.740Z,43
2022-07-29T07:07:23.977Z,43
2022-07-29T07:08:26.726Z,42
2022-07-29T07:09:21.375Z,43
2022-07-29T07:10:23.571Z,43
2022-07-29T07:11:22.950Z,42
2022-07-29T07:12:25.525Z,42
2022-07-29T07:13:26.163Z,42
2022-07-29T07:14:23.183Z,42
2022-07-29T07:15:39.732Z,42
2022-07-29T07:16:20.961Z,42
2022-07-29T07:17:23.733Z,42
2022-07-29T07:18:34.381Z,42
2022-07-29T07:19:28.957Z,42
2022-07-29T07:20:24.394Z,42
2022-07-29T07:21:22.048Z,42
2022-07-29T07:22:24.986Z,42
2022-07-29T07:23:23.734Z,42
2022-07-29T07:24:22.581Z,42
2022-07-29T07:25:33.089Z,41
2022-07-29T07:26:33.709Z,41
2022-07-29T07:27:25.591Z,41
2022-07-29T07:28:24.995Z,41
2022-07-29T07:29:26.021Z,41
2022-07-29T07:30:30.233Z,41
2022-07-29T07:31:27.005Z,41
2022-07-29T07:32:35.019Z,41
2022-07-29T07:33:31.212Z,41
2022-07-29T07:34:28.189Z,41
2022-07-29T07:35:20.592Z,41
2022-07-29T07:36:31.734Z,41
2022-07-29T07:37:22.576Z,41
2022-07-29T07:38:23.012Z,41
2022-07-29T07:39:23.962Z,41
2022-07-29T07:40:29.100Z,41
2022-07-29T07:41:25.022Z,41
2022-07-29T07:42:21.587Z,41
2022-07-29T07:43:35.841Z,41
2022-07-29T07:44:26.875Z,41
2022-07-29T07:45:21.369Z,41
2022-07-29T07:46:28.462Z,41
2022-07-29T07:47:19.904Z,41
2022-07-29T07:48:28.816Z,41
2022-07-29T07:49:24.849Z,41
2022-07-29T07:50:30.674Z,41
2022-07-29T07:51:28.548Z,41
2022-07-29T07:52:23.951Z,41
2022-07-29T07:53:32.715Z,41
2022-07-29T07:54:24.073Z,41
2022-07-29T07:55:26.921Z,41
2022-07-29T07:56:26.248Z,41
2022-07-29T07:57:31.633Z,41
2022-07-29T07:58:26.695Z,40
2022-07-29T07:59:29.385Z,40
2022-07-29T08:00:23.656Z,40
2022-07-29T08:01:30.070Z,40
2022-07-29T08:02:23.005Z,40
2022-07-29T08:03:20.799Z,40
2022-07-29T08:04:30.626Z,40
2022-07-29T08:05:28.827Z,40
2022-07-29T08:06:22.763Z,40
2022-07-29T08:07:22.747Z,40
2022-07-29T08:08:28.669Z,40
2022-07-29T08:09:30.170Z,40
2022-07-29T08:10:25.039Z,40
2022-07-29T08:11:35.753Z,40
2022-07-29T08:12:31.420Z,40
2022-07-29T08:13:24.186Z,40
2022-07-29T08:14:29.304Z,40
2022-07-29T08:15:22.130Z,40
2022-07-29T08:16:26.507Z,40
2022-07-29T08:17:22.275Z,40
2022-07-29T08:18:35.468Z,40
2022-07-29T08:19:26.673Z,40
2022-07-29T08:20:24.832Z,40
2022-07-29T08:21:23.200Z,40
2022-07-29T08:22:25.945Z,40
2022-07-29T08:23:29.291Z,40
2022-07-29T08:24:23.217Z,40
2022-07-29T08:25:19.558Z,40
2022-07-29T08:26:27.756Z,40
2022-07-29T08:27:42.870Z,40
2022-07-29T08:28:25.922Z,40
2022-07-29T08:29:30.887Z,40
2022-07-29T08:30:28.261Z,40
2022-07-29T08:31:20.797Z,40
2022-07-29T08:32:43.419Z,40
2022-07-29T08:33:28.839Z,40
2022-07-29T08:34:27.689Z,40
2022-07-29T08:35:20.950Z,40
2022-07-29T08:36:30.197Z,40
2022-07-29T08:37:28.434Z,40
2022-07-29T08:38:22.233Z,40
2022-07-29T08:39:22.776Z,40
2022-07-29T08:40:20.586Z,40
2022-07-29T08:41:25.427Z,40
2022-07-29T08:42:36.374Z,40
2022-07-29T08:43:30.355Z,40
2022-07-29T08:44:30.378Z,40
2022-07-29T08:45:21.013Z,40
2022-07-29T08:46:25.566Z,40
2022-07-29T08:47:28.914Z,40
2022-07-29T08:48:25.981Z,40
2022-07-29T08:49:33.357Z,40
2022-07-29T08:50:21.720Z,40
2022-07-29T08:51:27.538Z,40
2022-07-29T08:52:21.739Z,40
2022-07-29T08:53:21.486Z,40
2022-07-29T08:54:30.768Z,40
2022-07-29T08:55:24.411Z,40
2022-07-29T08:56:35.603Z,40
2022-07-29T08:57:23.482Z,40
2022-07-29T08:58:28.788Z,40
2022-07-29T08:59:21.749Z,42
2022-07-29T09:00:25.094Z,42
2022-07-29T09:01:35.148Z,42
2022-07-29T09:02:23.414Z,41
2022-07-29T09:03:33.720Z,41
2022-07-29T09:04:30.348Z,41
2022-07-29T09:05:24.766Z,42
2022-07-29T09:06:22.706Z,42
2022-07-29T09:07:34.458Z,42
2022-07-29T09:08:22.236Z,42
2022-07-29T09:09:26.264Z,43
2022-07-29T09:10:24.259Z,42
2022-07-29T09:11:30.971Z,42
2022-07-29T09:12:29.536Z,43
2022-07-29T09:13:23.044Z,43
2022-07-29T09:14:32.577Z,43
2022-07-29T09:15:30.952Z,44
2022-07-29T09:16:51.009Z,44
2022-07-29T09:17:31.605Z,44
2022-07-29T09:18:31.080Z,43
2022-07-29T09:19:21.009Z,43
2022-07-29T09:20:36.572Z,43
2022-07-29T09:21:31.005Z,43
2022-07-29T09:22:31.796Z,44
2022-07-29T09:23:39.319Z,43
2022-07-29T09:24:36.652Z,44
2022-07-29T09:25:26.977Z,44
2022-07-29T09:26:25.880Z,46
2022-07-29T09:27:20.752Z,46
2022-07-29T09:28:31.209Z,46
2022-07-29T09:29:32.080Z,48
2022-07-29T09:30:28.922Z,47
2022-07-29T09:31:21.701Z,47
2022-07-29T09:32:32.531Z,48
2022-07-29T09:33:27.478Z,50
2022-07-29T09:34:21.711Z,50
2022-07-29T09:35:32.279Z,52
2022-07-29T09:36:27.084Z,51
2022-07-29T09:37:22.689Z,51
2022-07-29T09:38:24.661Z,49
2022-07-29T09:39:38.081Z,49
2022-07-29T09:40:28.144Z,49
2022-07-29T09:41:20.588Z,51
2022-07-29T09:42:31.015Z,51
2022-07-29T09:43:29.188Z,50
2022-07-29T09:44:24.580Z,52
2022-07-29T09:45:28.371Z,52
2022-07-29T09:46:20.567Z,50
2022-07-29T09:47:26.424Z,51
2022-07-29T09:48:23.439Z,51
2022-07-29T09:49:32.433Z,51
2022-07-29T09:50:27.837Z,51
2022-07-29T09:51:38.100Z,52
2022-07-29T09:52:34.021Z,52
2022-07-29T09:53:29.251Z,51
2022-07-29T09:54:27.694Z,53
2022-07-29T09:55:21.949Z,52
2022-07-29T09:56:20.432Z,52
2022-07-29T09:57:31.106Z,51
2022-07-29T09:58:26.346Z,52
2022-07-29T09:59:50.086Z,53
2022-07-29T10:00:34.699Z,51
2022-07-29T10:01:25.570Z,50
2022-07-29T10:02:23.636Z,51
2022-07-29T10:03:26.839Z,51
2022-07-29T10:04:26.937Z,51
2022-07-29T10:05:24.398Z,50
2022-07-29T10:06:21.486Z,50
2022-07-29T10:07:29.033Z,51
2022-07-29T10:08:28.588Z,50
2022-07-29T10:09:22.276Z,49
2022-07-29T10:10:30.680Z,49
2022-07-29T10:11:21.686Z,49
2022-07-29T10:12:23.969Z,48
2022-07-29T10:13:28.792Z,48
2022-07-29T10:14:28.962Z,48
2022-07-29T10:15:27.876Z,48
2022-07-29T10:16:24.730Z,48
2022-07-29T10:17:33.416Z,48
2022-07-29T10:18:31.135Z,49
2022-07-29T10:19:25.816Z,48
2022-07-29T10:20:25.331Z,48
2022-07-29T10:21:35.344Z,49
2022-07-29T10:22:51.811Z,51
2022-07-29T10:23:21.265Z,51
2022-07-29T10:24:22.012Z,51
2022-07-29T10:25:26.771Z,50
2022-07-29T10:26:42.937Z,51
2022-07-29T10:27:28.410Z,51
2022-07-29T10:28:32.325Z,51
2022-07-29T10:29:24.755Z,51
2022-07-29T10:30:22.408Z,51
2022-07-29T10:31:23.839Z,51
2022-07-29T10:32:27.502Z,50
2022-07-29T10:33:24.550Z,49
2022-07-29T10:34:20.726Z,50
2022-07-29T10:35:31.363Z,49
2022-07-29T10:36:27.251Z,49
2022-07-29T10:37:23.900Z,49
2022-07-29T10:38:28.311Z,50
2022-07-29T10:39:25.510Z,49
2022-07-29T10:40:23.725Z,49
2022-07-29T10:41:24.632Z,51
2022-07-29T10:43:27.405Z,50
2022-07-29T10:43:30.144Z,50
2022-07-29T10:44:23.008Z,50
2022-07-29T10:45:31.725Z,51
2022-07-29T10:46:28.650Z,50
2022-07-29T10:47:22.659Z,50
2022-07-29T10:48:28.286Z,49
2022-07-29T10:49:24.830Z,49
2022-07-29T10:50:25.106Z,49
2022-07-29T10:51:20.714Z,49
2022-07-29T10:52:33.428Z,50
2022-07-29T10:53:21.149Z,48
2022-07-29T10:54:22.616Z,48
2022-07-29T10:55:34.385Z,48
2022-07-29T10:56:25.512Z,47
2022-07-29T10:57:54.054Z,47
2022-07-29T10:58:20.616Z,47
2022-07-29T10:59:36.307Z,47
2022-07-29T11:00:23.883Z,46
2022-07-29T11:01:37.266Z,46
2022-07-29T11:02:41.854Z,45
2022-07-29T11:03:30.627Z,45
2022-07-29T11:04:25.755Z,45
2022-07-29T11:05:21.843Z,45
2022-07-29T11:06:31.034Z,45
2022-07-29T11:07:41.503Z,47
2022-07-29T11:08:26.510Z,46
2022-07-29T11:09:25.869Z,46
2022-07-29T11:10:31.308Z,46
2022-07-29T11:11:20.156Z,45
2022-07-29T11:12:23.408Z,45
2022-07-29T11:13:30.835Z,44
2022-07-29T11:14:28.490Z,44
2022-07-29T11:15:25.042Z,44
2022-07-29T11:16:28.449Z,44
2022-07-29T11:17:19.842Z,45
2022-07-29T11:18:26.624Z,45
2022-07-29T11:19:29.860Z,44
2022-07-29T11:20:32.662Z,45
2022-07-29T11:21:27.592Z,46
2022-07-29T11:22:24.046Z,45
2022-07-29T11:23:34.714Z,45
2022-07-29T11:24:29.242Z,45
2022-07-29T11:25:50.188Z,44
2022-07-29T11:26:22.917Z,43
2022-07-29T11:27:22.691Z,42
2022-07-29T11:28:28.708Z,42
2022-07-29T11:29:23.586Z,42
2022-07-29T11:30:36.761Z,41
2022-07-29T11:31:30.786Z,40
2022-07-29T11:32:24.052Z,39
2022-07-29T11:33:20.696Z,38
2022-07-29T11:34:28.106Z,38
2022-07-29T11:35:38.347Z,38
2022-07-29T11:36:28.099Z,37
2022-07-29T11:37:33.134Z,37
2022-07-29T11:38:34.031Z,36
2022-07-29T11:39:24.775Z,35
2022-07-29T11:40:23.159Z,35
2022-07-29T11:41:32.618Z,34
2022-07-29T11:42:32.370Z,33
2022-07-29T11:43:22.803Z,32
2022-07-29T11:44:33.135Z,32
2022-07-29T11:45:41.243Z,31
2022-07-29T11:46:25.123Z,31
2022-07-29T11:47:22.565Z,31
2022-07-29T11:48:34.852Z,31
2022-07-29T11:49:32.628Z,30
2022-07-29T11:50:21.672Z,31
2022-07-29T11:51:33.473Z,31
2022-07-29T11:52:25.438Z,29
2022-07-29T11:53:24.744Z,29
2022-07-29T11:54:27.252Z,29
2022-07-29T11:55:32.323Z,29
2022-07-29T11:56:28.748Z,28
2022-07-29T11:57:36.497Z,29
2022-07-29T11:58:24.969Z,27
2022-07-29T11:59:33.513Z,27
2022-07-29T12:00:25.193Z,28
2022-07-29T12:01:21.855Z,28
2022-07-29T12:02:37.220Z,27
2022-07-29T12:03:32.867Z,28
2022-07-29T12:04:24.785Z,28
2022-07-29T12:06:29.173Z,27
2022-07-29T12:06:29.598Z,27
2022-07-29T12:07:27.058Z,27
2022-07-29T12:08:22.235Z,26
2022-07-29T12:09:27.437Z,26
2022-07-29T12:10:30.422Z,25
2022-07-29T12:11:23.772Z,25
2022-07-29T12:12:28.318Z,25
2022-07-29T12:13:37.147Z,25
2022-07-29T12:14:20.953Z,25
2022-07-29T12:15:22.391Z,25
2022-07-29T12:16:25.971Z,25
2022-07-29T12:17:25.656Z,25
2022-07-29T12:18:24.038Z,25
2022-07-29T12:19:30.589Z,25
2022-07-29T12:20:26.201Z,25
2022-07-29T12:21:25.931Z,25
2022-07-29T12:22:22.787Z,25
2022-07-29T12:23:29.503Z,25
2022-07-29T12:24:27.849Z,24
2022-07-29T12:25:34.022Z,24
2022-07-29T12:26:31.989Z,24
2022-07-29T12:27:29.191Z,23
2022-07-29T12:28:27.804Z,24
2022-07-29T12:29:35.497Z,24
2022-07-29T12:30:28.575Z,24
2022-07-29T12:31:43.467Z,23
2022-07-29T12:32:24.683Z,23
2022-07-29T12:33:38.934Z,23
2022-07-29T12:34:22.567Z,24
2022-07-29T12:35:27.794Z,24
2022-07-29T12:36:22.077Z,24
2022-07-29T12:37:40.442Z,23
2022-07-29T12:38:30.811Z,23
2022-07-29T12:39:30.384Z,22
2022-07-29T12:40:25.209Z,22
2022-07-29T12:41:25.991Z,23
2022-07-29T12:42:28.832Z,23
2022-07-29T12:43:21.031Z,23
2022-07-29T12:44:37.501Z,23
2022-07-29T12:45:20.487Z,23
2022-07-29T12:46:25.696Z,22
2022-07-29T12:47:27.193Z,22
2022-07-29T12:48:23.538Z,22
2022-07-29T12:49:24.826Z,22
2022-07-29T12:50:25.903Z,21
2022-07-29T12:51:34.443Z,22
2022-07-29T12:52:24.460Z,22
2022-07-29T12:53:25.755Z,22
2022-07-29T12:54:31.919Z,22
2022-07-29T12:55:22.937Z,22
2022-07-29T12:56:42.142Z,22
2022-07-29T12:57:21.034Z,22
2022-07-29T12:58:22.545Z,22
2022-07-29T12:59:20.443Z,23
2022-07-29T13:00:25.439Z,22
2022-07-29T13:01:33.552Z,22
2022-07-29T13:02:29.170Z,21
2022-07-29T13:03:23.260Z,21
2022-07-29T13:04:20.761Z,21
2022-07-29T13:05:26.670Z,21
2022-07-29T13:06:31.768Z,21
2022-07-29T13:07:54.200Z,21
2022-07-29T13:08:33.096Z,21
2022-07-29T13:09:30.866Z,21
2022-07-29T13:10:28.500Z,22
2022-07-29T13:11:22.341Z,22
2022-07-29T13:12:31.793Z,22
2022-07-29T13:13:22.836Z,22
2022-07-29T13:14:23.193Z,22
2022-07-29T13:15:35.351Z,22
2022-07-29T13:16:23.399Z,22
2022-07-29T13:17:32.989Z,22
2022-07-29T13:18:20.626Z,22
2022-07-29T13:19:30.982Z,22
2022-07-29T13:20:29.003Z,21
2022-07-29T13:21:24.353Z,21
2022-07-29T13:22:27.280Z,21
2022-07-29T13:23:30.863Z,22
2022-07-29T13:24:27.671Z,22
2022-07-29T13:25:21.164Z,21
2022-07-29T13:26:30.938Z,21
2022-07-29T13:27:28.912Z,21
2022-07-29T13:28:25.878Z,21
2022-07-29T13:29:32.947Z,21
2022-07-29T13:30:33.946Z,21
2022-07-29T13:31:25.400Z,21
2022-07-29T13:32:27.672Z,20
2022-07-29T13:33:22.473Z,21
2022-07-29T13:34:28.848Z,20
2022-07-29T13:35:23.173Z,21
2022-07-29T13:36:23.251Z,21
2022-07-29T13:37:31.510Z,21
2022-07-29T13:38:30.842Z,21
2022-07-29T13:39:26.287Z,21
2022-07-29T13:40:27.103Z,22
2022-07-29T13:41:26.955Z,21
2022-07-29T13:42:24.690Z,21
2022-07-29T13:43:26.018Z,22
2022-07-29T13:44:24.267Z,21
2022-07-29T13:45:26.667Z,22
2022-07-29T13:46:21.185Z,22
2022-07-29T13:47:33.403Z,21
2022-07-29T13:48:22.645Z,20
2022-07-29T13:49:22.981Z,20
2022-07-29T13:50:23.175Z,20
2022-07-29T13:51:23.819Z,20
2022-07-29T13:52:26.291Z,21
2022-07-29T13:53:26.722Z,20
2022-07-29T13:54:38.865Z,21
2022-07-29T13:55:29.103Z,21
2022-07-29T13:56:21.235Z,21
2022-07-29T13:57:24.857Z,21
2022-07-29T13:58:34.727Z,21
2022-07-29T13:59:21.332Z,21
2022-07-29T14:00:20.983Z,21
2022-07-29T14:01:21.433Z,21
2022-07-29T14:02:27.969Z,21
2022-07-29T14:03:23.388Z,21
2022-07-29T14:04:29.558Z,21
2022-07-29T14:05:32.446Z,20
2022-07-29T14:06:25.769Z,21
2022-07-29T14:07:21.982Z,20
2022-07-29T14:08:23.221Z,20
2022-07-29T14:09:30.369Z,20
2022-07-29T14:10:23.470Z,21
2022-07-29T14:11:21.121Z,21
2022-07-29T14:12:21.435Z,21
2022-07-29T14:13:26.416Z,21
2022-07-29T14:14:24.069Z,21
2022-07-29T14:15:25.492Z,21
2022-07-29T14:16:28.163Z,21
2022-07-29T14:17:22.976Z,21
2022-07-29T14:18:25.220Z,21
2022-07-29T14:19:21.053Z,22
2022-07-29T14:20:27.177Z,22
2022-07-29T14:21:22.013Z,21
2022-07-29T14:22:32.227Z,21
2022-07-29T14:23:27.172Z,21
2022-07-29T14:24:23.613Z,21
2022-07-29T14:25:28.889Z,21
2022-07-29T14:26:24.270Z,21
2022-07-29T14:27:37.953Z,21
2022-07-29T14:28:21.181Z,21
2022-07-29T14:29:22.603Z,21
2022-07-29T14:30:28.638Z,21
2022-07-29T14:31:24.383Z,21
2022-07-29T14:32:35.499Z,21
2022-07-29T14:33:30.486Z,21
2022-07-29T14:34:26.328Z,21
2022-07-29T14:35:22.522Z,21
2022-07-29T14:36:26.767Z,22
2022-07-29T14:37:21.492Z,21
2022-07-29T14:38:23.148Z,21
2022-07-29T14:39:36.956Z,21
2022-07-29T14:40:29.736Z,21
2022-07-29T14:41:25.968Z,22
2022-07-29T14:42:21.205Z,22
2022-07-29T14:43:31.654Z,22
2022-07-29T14:44:29.616Z,22
2022-07-29T14:45:23.177Z,22
2022-07-29T14:46:25.897Z,21